sensor_id;sensor_type;location;lat;lon;timestamp;P1;durP1;ratioP1;P2;durP2;ratioP2
16101;SDS011;56411;52.964;10.540;2023-08-01T00:01:59;9.50;;;4.57;;
16101;SDS011;56411;52.964;10.540;2023-08-01T00:04:26;9.05;;;4.10;;
16101;SDS011;56411;52.964;10.540;2023-08-01T00:06:53;8.73;;;4.22;;
16101;SDS011;56411;52.964;10.540;2023-08-01T00:09:20;7.95;;;3.75;;
16101;SDS011;56411;52.964;10.540;2023-08-01T00:11:48;8.43;;;3.92;;
16101;SDS011;56411;52.964;10.540;2023-08-01T00:14:16;10.43;;;4.22;;
16101;SDS011;56411;52.964;10.540;2023-08-01T00:16:45;8.82;;;4.00;;
16101;SDS011;56411;52.964;10.540;2023-08-01T00:19:13;8.82;;;4.03;;
16101;SDS011;56411;52.964;10.540;2023-08-01T00:21:40;7.53;;;3.90;;
16101;SDS011;56411;52.964;10.540;2023-08-01T00:24:08;9.55;;;4.00;;
16101;SDS011;56411;52.964;10.540;2023-08-01T00:26:35;10.35;;;3.97;;
16101;SDS011;56411;52.964;10.540;2023-08-01T00:29:02;8.05;;;3.60;;
16101;SDS011;56411;52.964;10.540;2023-08-01T00:31:32;8.95;;;3.75;;
16101;SDS011;56411;52.964;10.540;2023-08-01T00:33:59;8.65;;;3.85;;
16101;SDS011;56411;52.964;10.540;2023-08-01T00:36:27;8.52;;;4.18;;
16101;SDS011;56411;52.964;10.540;2023-08-01T00:38:54;8.68;;;4.10;;
16101;SDS011;56411;52.964;10.540;2023-08-01T00:41:21;7.57;;;3.88;;
16101;SDS011;56411;52.964;10.540;2023-08-01T00:43:49;8.70;;;4.00;;
16101;SDS011;56411;52.964;10.540;2023-08-01T00:46:16;7.80;;;3.83;;
16101;SDS011;56411;52.964;10.540;2023-08-01T00:48:45;8.25;;;3.97;;
16101;SDS011;56411;52.964;10.540;2023-08-01T00:51:13;8.50;;;3.92;;
16101;SDS011;56411;52.964;10.540;2023-08-01T00:53:43;8.40;;;4.45;;
16101;SDS011;56411;52.964;10.540;2023-08-01T00:56:11;9.35;;;4.20;;
16101;SDS011;56411;52.964;10.540;2023-08-01T00:58:38;10.02;;;4.53;;
16101;SDS011;56411;52.964;10.540;2023-08-01T01:01:06;9.32;;;4.30;;
16101;SDS011;56411;52.964;10.540;2023-08-01T01:03:33;9.07;;;4.13;;
16101;SDS011;56411;52.964;10.540;2023-08-01T01:06:04;9.52;;;4.35;;
16101;SDS011;56411;52.964;10.540;2023-08-01T01:08:36;8.32;;;4.35;;
16101;SDS011;56411;52.964;10.540;2023-08-01T01:11:03;8.13;;;4.30;;
16101;SDS011;56411;52.964;10.540;2023-08-01T01:13:30;9.93;;;5.10;;
16101;SDS011;56411;52.964;10.540;2023-08-01T01:15:58;8.52;;;4.40;;
16101;SDS011;56411;52.964;10.540;2023-08-01T01:18:25;9.27;;;4.70;;
16101;SDS011;56411;52.964;10.540;2023-08-01T01:20:55;10.25;;;4.60;;
16101;SDS011;56411;52.964;10.540;2023-08-01T01:23:24;9.23;;;4.32;;
16101;SDS011;56411;52.964;10.540;2023-08-01T01:25:52;10.68;;;4.22;;
16101;SDS011;56411;52.964;10.540;2023-08-01T01:28:20;9.75;;;4.15;;
16101;SDS011;56411;52.964;10.540;2023-08-01T01:30:48;9.25;;;4.22;;
16101;SDS011;56411;52.964;10.540;2023-08-01T01:33:17;9.05;;;4.30;;
16101;SDS011;56411;52.964;10.540;2023-08-01T01:35:46;8.38;;;4.20;;
16101;SDS011;56411;52.964;10.540;2023-08-01T01:38:16;10.13;;;4.00;;
16101;SDS011;56411;52.964;10.540;2023-08-01T01:40:43;8.55;;;4.22;;
16101;SDS011;56411;52.964;10.540;2023-08-01T01:43:11;8.30;;;4.07;;
16101;SDS011;56411;52.964;10.540;2023-08-01T01:45:38;9.48;;;3.97;;
16101;SDS011;56411;52.964;10.540;2023-08-01T01:48:06;8.50;;;3.92;;
16101;SDS011;56411;52.964;10.540;2023-08-01T01:50:34;7.72;;;3.72;;
16101;SDS011;56411;52.964;10.540;2023-08-01T01:53:02;7.63;;;3.70;;
16101;SDS011;56411;52.964;10.540;2023-08-01T01:55:32;7.82;;;3.95;;
16101;SDS011;56411;52.964;10.540;2023-08-01T01:58:02;8.75;;;4.00;;
16101;SDS011;56411;52.964;10.540;2023-08-01T02:00:33;8.32;;;3.97;;
16101;SDS011;56411;52.964;10.540;2023-08-01T02:03:05;9.52;;;4.03;;
16101;SDS011;56411;52.964;10.540;2023-08-01T02:08:44;10.18;;;4.30;;
16101;SDS011;56411;52.964;10.540;2023-08-01T02:11:15;8.70;;;4.00;;
16101;SDS011;56411;52.964;10.540;2023-08-01T02:16:55;8.98;;;3.83;;
16101;SDS011;56411;52.964;10.540;2023-08-01T02:19:26;8.90;;;4.13;;
16101;SDS011;56411;52.964;10.540;2023-08-01T02:22:10;10.73;;;4.47;;
16101;SDS011;56411;52.964;10.540;2023-08-01T02:24:38;8.02;;;4.18;;
16101;SDS011;56411;52.964;10.540;2023-08-01T02:30:09;8.27;;;4.10;;
16101;SDS011;56411;52.964;10.540;2023-08-01T02:32:52;10.00;;;4.47;;
16101;SDS011;56411;52.964;10.540;2023-08-01T02:35:20;6.32;;;3.65;;
16101;SDS011;56411;52.964;10.540;2023-08-01T02:37:47;8.77;;;4.45;;
16101;SDS011;56411;52.964;10.540;2023-08-01T02:40:14;9.27;;;4.45;;
16101;SDS011;56411;52.964;10.540;2023-08-01T02:42:45;10.60;;;4.90;;
16101;SDS011;56411;52.964;10.540;2023-08-01T02:45:14;9.73;;;5.10;;
16101;SDS011;56411;52.964;10.540;2023-08-01T02:47:51;10.63;;;5.55;;
16101;SDS011;56411;52.964;10.540;2023-08-01T02:56:48;9.35;;;5.35;;
16101;SDS011;56411;52.964;10.540;2023-08-01T02:59:17;10.52;;;5.28;;
16101;SDS011;56411;52.964;10.540;2023-08-01T03:01:51;9.75;;;5.15;;
16101;SDS011;56411;52.964;10.540;2023-08-01T03:04:19;13.40;;;5.05;;
16101;SDS011;56411;52.964;10.540;2023-08-01T03:07:03;9.73;;;5.13;;
16101;SDS011;56411;52.964;10.540;2023-08-01T03:13:24;10.73;;;5.38;;
16101;SDS011;56411;52.964;10.540;2023-08-01T03:30:12;8.00;;;4.45;;
16101;SDS011;56411;52.964;10.540;2023-08-01T03:33:01;8.98;;;4.32;;
16101;SDS011;56411;52.964;10.540;2023-08-01T03:35:44;9.55;;;4.03;;
16101;SDS011;56411;52.964;10.540;2023-08-01T03:38:19;7.97;;;4.05;;
16101;SDS011;56411;52.964;10.540;2023-08-01T03:41:12;9.63;;;4.45;;
16101;SDS011;56411;52.964;10.540;2023-08-01T03:46:26;8.15;;;4.03;;
16101;SDS011;56411;52.964;10.540;2023-08-01T03:48:53;7.40;;;3.78;;
16101;SDS011;56411;52.964;10.540;2023-08-01T03:51:21;8.10;;;4.07;;
16101;SDS011;56411;52.964;10.540;2023-08-01T03:53:48;7.22;;;4.00;;
16101;SDS011;56411;52.964;10.540;2023-08-01T03:56:18;7.00;;;3.72;;
16101;SDS011;56411;52.964;10.540;2023-08-01T03:58:46;7.13;;;3.65;;
16101;SDS011;56411;52.964;10.540;2023-08-01T04:01:13;8.23;;;3.88;;
16101;SDS011;56411;52.964;10.540;2023-08-01T04:03:41;8.70;;;3.72;;
16101;SDS011;56411;52.964;10.540;2023-08-01T04:06:09;7.63;;;3.70;;
16101;SDS011;56411;52.964;10.540;2023-08-01T04:08:36;8.85;;;4.47;;
16101;SDS011;56411;52.964;10.540;2023-08-01T04:11:06;8.52;;;4.30;;
16101;SDS011;56411;52.964;10.540;2023-08-01T04:13:33;9.60;;;4.22;;
16101;SDS011;56411;52.964;10.540;2023-08-01T04:16:00;10.63;;;4.50;;
16101;SDS011;56411;52.964;10.540;2023-08-01T04:18:27;9.65;;;4.20;;
16101;SDS011;56411;52.964;10.540;2023-08-01T04:20:57;10.25;;;4.40;;
16101;SDS011;56411;52.964;10.540;2023-08-01T04:23:28;9.50;;;4.55;;
16101;SDS011;56411;52.964;10.540;2023-08-01T04:25:56;12.05;;;5.22;;
16101;SDS011;56411;52.964;10.540;2023-08-01T04:28:24;9.48;;;4.78;;
16101;SDS011;56411;52.964;10.540;2023-08-01T04:30:52;10.35;;;4.40;;
16101;SDS011;56411;52.964;10.540;2023-08-01T04:33:19;12.35;;;4.35;;
16101;SDS011;56411;52.964;10.540;2023-08-01T04:35:47;8.50;;;4.53;;
16101;SDS011;56411;52.964;10.540;2023-08-01T04:45:09;9.65;;;4.55;;
16101;SDS011;56411;52.964;10.540;2023-08-01T04:47:36;10.98;;;4.80;;
16101;SDS011;56411;52.964;10.540;2023-08-01T04:50:04;8.43;;;4.47;;
16101;SDS011;56411;52.964;10.540;2023-08-01T04:52:39;9.65;;;4.47;;
16101;SDS011;56411;52.964;10.540;2023-08-01T04:55:12;9.75;;;4.80;;
16101;SDS011;56411;52.964;10.540;2023-08-01T04:57:43;8.35;;;4.50;;
16101;SDS011;56411;52.964;10.540;2023-08-01T05:00:12;11.25;;;5.40;;
16101;SDS011;56411;52.964;10.540;2023-08-01T05:02:40;12.27;;;4.85;;
16101;SDS011;56411;52.964;10.540;2023-08-01T05:05:07;12.48;;;5.03;;
16101;SDS011;56411;52.964;10.540;2023-08-01T05:07:35;11.55;;;5.38;;
16101;SDS011;56411;52.964;10.540;2023-08-01T05:10:02;10.23;;;5.35;;
16101;SDS011;56411;52.964;10.540;2023-08-01T05:12:29;10.70;;;5.10;;
16101;SDS011;56411;52.964;10.540;2023-08-01T05:14:56;11.75;;;5.32;;
16101;SDS011;56411;52.964;10.540;2023-08-01T05:17:25;11.07;;;5.30;;
16101;SDS011;56411;52.964;10.540;2023-08-01T05:19:52;11.82;;;5.47;;
16101;SDS011;56411;52.964;10.540;2023-08-01T05:22:20;10.65;;;5.00;;
16101;SDS011;56411;52.964;10.540;2023-08-01T05:24:47;11.25;;;5.40;;
16101;SDS011;56411;52.964;10.540;2023-08-01T05:27:14;12.82;;;5.55;;
16101;SDS011;56411;52.964;10.540;2023-08-01T05:29:41;12.82;;;5.65;;
16101;SDS011;56411;52.964;10.540;2023-08-01T05:32:09;10.88;;;5.30;;
16101;SDS011;56411;52.964;10.540;2023-08-01T05:34:37;11.07;;;4.88;;
16101;SDS011;56411;52.964;10.540;2023-08-01T05:37:04;11.43;;;5.13;;
16101;SDS011;56411;52.964;10.540;2023-08-01T05:39:32;11.13;;;5.45;;
16101;SDS011;56411;52.964;10.540;2023-08-01T05:41:59;10.75;;;5.57;;
16101;SDS011;56411;52.964;10.540;2023-08-01T05:44:26;11.93;;;6.13;;
16101;SDS011;56411;52.964;10.540;2023-08-01T05:46:53;10.68;;;5.55;;
16101;SDS011;56411;52.964;10.540;2023-08-01T05:49:20;11.35;;;5.90;;
16101;SDS011;56411;52.964;10.540;2023-08-01T05:51:49;12.15;;;5.80;;
16101;SDS011;56411;52.964;10.540;2023-08-01T05:54:16;10.65;;;5.68;;
16101;SDS011;56411;52.964;10.540;2023-08-01T05:56:43;12.68;;;6.00;;
16101;SDS011;56411;52.964;10.540;2023-08-01T05:59:10;12.02;;;5.57;;
16101;SDS011;56411;52.964;10.540;2023-08-01T06:01:37;13.13;;;5.90;;
16101;SDS011;56411;52.964;10.540;2023-08-01T06:04:05;9.38;;;5.72;;
16101;SDS011;56411;52.964;10.540;2023-08-01T06:06:33;11.10;;;5.45;;
16101;SDS011;56411;52.964;10.540;2023-08-01T06:09:01;9.75;;;5.93;;
16101;SDS011;56411;52.964;10.540;2023-08-01T06:11:28;14.05;;;6.00;;
16101;SDS011;56411;52.964;10.540;2023-08-01T06:13:55;10.57;;;6.43;;
16101;SDS011;56411;52.964;10.540;2023-08-01T06:16:23;11.90;;;6.03;;
16101;SDS011;56411;52.964;10.540;2023-08-01T06:18:50;10.30;;;5.85;;
16101;SDS011;56411;52.964;10.540;2023-08-01T06:21:17;11.77;;;6.22;;
16101;SDS011;56411;52.964;10.540;2023-08-01T06:23:45;12.05;;;6.10;;
16101;SDS011;56411;52.964;10.540;2023-08-01T06:26:14;12.00;;;6.35;;
16101;SDS011;56411;52.964;10.540;2023-08-01T06:28:41;11.50;;;6.20;;
16101;SDS011;56411;52.964;10.540;2023-08-01T06:31:08;11.23;;;6.15;;
16101;SDS011;56411;52.964;10.540;2023-08-01T06:33:35;10.27;;;6.32;;
16101;SDS011;56411;52.964;10.540;2023-08-01T06:36:03;11.63;;;6.03;;
16101;SDS011;56411;52.964;10.540;2023-08-01T06:38:31;10.70;;;5.90;;
16101;SDS011;56411;52.964;10.540;2023-08-01T06:40:58;10.77;;;5.40;;
16101;SDS011;56411;52.964;10.540;2023-08-01T06:43:27;11.00;;;5.68;;
16101;SDS011;56411;52.964;10.540;2023-08-01T06:45:54;12.35;;;5.57;;
16101;SDS011;56411;52.964;10.540;2023-08-01T06:48:22;11.23;;;5.80;;
16101;SDS011;56411;52.964;10.540;2023-08-01T06:50:49;11.23;;;5.70;;
16101;SDS011;56411;52.964;10.540;2023-08-01T06:53:16;10.68;;;5.70;;
16101;SDS011;56411;52.964;10.540;2023-08-01T06:55:43;11.43;;;5.85;;
16101;SDS011;56411;52.964;10.540;2023-08-01T06:58:10;10.13;;;5.90;;
16101;SDS011;56411;52.964;10.540;2023-08-01T07:00:39;11.27;;;6.30;;
16101;SDS011;56411;52.964;10.540;2023-08-01T07:03:06;10.82;;;6.25;;
16101;SDS011;56411;52.964;10.540;2023-08-01T07:05:33;11.05;;;6.60;;
16101;SDS011;56411;52.964;10.540;2023-08-01T07:08:01;11.60;;;6.32;;
16101;SDS011;56411;52.964;10.540;2023-08-01T07:10:28;11.68;;;6.20;;
16101;SDS011;56411;52.964;10.540;2023-08-01T07:12:55;14.02;;;6.80;;
16101;SDS011;56411;52.964;10.540;2023-08-01T07:15:23;14.00;;;6.78;;
16101;SDS011;56411;52.964;10.540;2023-08-01T07:17:52;12.60;;;6.70;;
16101;SDS011;56411;52.964;10.540;2023-08-01T07:20:19;13.18;;;6.30;;
16101;SDS011;56411;52.964;10.540;2023-08-01T07:22:46;12.80;;;6.30;;
16101;SDS011;56411;52.964;10.540;2023-08-01T07:25:13;11.05;;;6.15;;
16101;SDS011;56411;52.964;10.540;2023-08-01T07:27:42;11.27;;;6.60;;
16101;SDS011;56411;52.964;10.540;2023-08-01T07:30:09;10.02;;;6.07;;
16101;SDS011;56411;52.964;10.540;2023-08-01T07:32:37;12.40;;;5.68;;
16101;SDS011;56411;52.964;10.540;2023-08-01T07:35:06;12.95;;;6.68;;
16101;SDS011;56411;52.964;10.540;2023-08-01T07:37:34;10.70;;;5.93;;
16101;SDS011;56411;52.964;10.540;2023-08-01T07:40:03;11.32;;;6.00;;
16101;SDS011;56411;52.964;10.540;2023-08-01T07:42:30;10.63;;;5.93;;
16101;SDS011;56411;52.964;10.540;2023-08-01T07:44:58;11.98;;;5.88;;
16101;SDS011;56411;52.964;10.540;2023-08-01T07:47:25;11.68;;;6.13;;
16101;SDS011;56411;52.964;10.540;2023-08-01T07:49:52;12.63;;;6.65;;
16101;SDS011;56411;52.964;10.540;2023-08-01T07:52:21;13.30;;;6.40;;
16101;SDS011;56411;52.964;10.540;2023-08-01T07:54:48;12.80;;;6.60;;
16101;SDS011;56411;52.964;10.540;2023-08-01T07:57:15;11.57;;;6.82;;
16101;SDS011;56411;52.964;10.540;2023-08-01T07:59:42;12.13;;;6.60;;
16101;SDS011;56411;52.964;10.540;2023-08-01T08:02:09;11.00;;;6.70;;
16101;SDS011;56411;52.964;10.540;2023-08-01T08:04:38;11.30;;;6.53;;
16101;SDS011;56411;52.964;10.540;2023-08-01T08:07:05;13.15;;;6.45;;
16101;SDS011;56411;52.964;10.540;2023-08-01T08:09:34;11.55;;;5.70;;
16101;SDS011;56411;52.964;10.540;2023-08-01T08:12:02;11.82;;;6.20;;
16101;SDS011;56411;52.964;10.540;2023-08-01T08:14:29;11.35;;;6.20;;
16101;SDS011;56411;52.964;10.540;2023-08-01T08:16:56;12.77;;;6.00;;
16101;SDS011;56411;52.964;10.540;2023-08-01T08:19:23;13.70;;;5.85;;
16101;SDS011;56411;52.964;10.540;2023-08-01T08:21:51;13.77;;;6.32;;
16101;SDS011;56411;52.964;10.540;2023-08-01T08:24:18;11.75;;;6.05;;
16101;SDS011;56411;52.964;10.540;2023-08-01T08:26:46;13.15;;;5.88;;
16101;SDS011;56411;52.964;10.540;2023-08-01T08:29:13;10.90;;;5.50;;
16101;SDS011;56411;52.964;10.540;2023-08-01T08:31:40;11.77;;;5.20;;
16101;SDS011;56411;52.964;10.540;2023-08-01T08:34:08;12.38;;;5.32;;
16101;SDS011;56411;52.964;10.540;2023-08-01T08:36:35;11.93;;;5.63;;
16101;SDS011;56411;52.964;10.540;2023-08-01T08:39:02;11.40;;;5.40;;
16101;SDS011;56411;52.964;10.540;2023-08-01T08:41:30;12.00;;;5.85;;
16101;SDS011;56411;52.964;10.540;2023-08-01T08:44:05;10.63;;;5.55;;
16101;SDS011;56411;52.964;10.540;2023-08-01T08:46:35;11.85;;;6.00;;
16101;SDS011;56411;52.964;10.540;2023-08-01T08:49:07;11.73;;;5.50;;
16101;SDS011;56411;52.964;10.540;2023-08-01T08:51:35;12.65;;;5.95;;
16101;SDS011;56411;52.964;10.540;2023-08-01T08:54:03;14.70;;;5.93;;
16101;SDS011;56411;52.964;10.540;2023-08-01T08:56:32;12.98;;;5.75;;
16101;SDS011;56411;52.964;10.540;2023-08-01T08:59:00;14.30;;;6.00;;
16101;SDS011;56411;52.964;10.540;2023-08-01T09:01:29;11.32;;;5.60;;
16101;SDS011;56411;52.964;10.540;2023-08-01T09:03:59;11.15;;;5.32;;
16101;SDS011;56411;52.964;10.540;2023-08-01T09:06:28;11.73;;;5.50;;
16101;SDS011;56411;52.964;10.540;2023-08-01T09:09:01;12.20;;;5.78;;
16101;SDS011;56411;52.964;10.540;2023-08-01T09:11:37;13.68;;;5.40;;
16101;SDS011;56411;52.964;10.540;2023-08-01T09:14:10;10.48;;;4.97;;
16101;SDS011;56411;52.964;10.540;2023-08-01T09:16:39;10.57;;;5.90;;
16101;SDS011;56411;52.964;10.540;2023-08-01T09:19:07;11.45;;;5.00;;
16101;SDS011;56411;52.964;10.540;2023-08-01T09:21:38;10.23;;;4.80;;
16101;SDS011;56411;52.964;10.540;2023-08-01T09:24:08;10.90;;;5.00;;
16101;SDS011;56411;52.964;10.540;2023-08-01T09:26:36;10.25;;;4.93;;
16101;SDS011;56411;52.964;10.540;2023-08-01T09:29:04;10.93;;;4.65;;
16101;SDS011;56411;52.964;10.540;2023-08-01T09:31:32;10.30;;;4.65;;
16101;SDS011;56411;52.964;10.540;2023-08-01T09:34:02;10.25;;;4.90;;
16101;SDS011;56411;52.964;10.540;2023-08-01T09:36:30;12.48;;;4.70;;
16101;SDS011;56411;52.964;10.540;2023-08-01T09:38:58;13.13;;;5.15;;
16101;SDS011;56411;52.964;10.540;2023-08-01T09:41:26;10.30;;;4.53;;
16101;SDS011;56411;52.964;10.540;2023-08-01T09:43:53;11.60;;;4.80;;
16101;SDS011;56411;52.964;10.540;2023-08-01T09:46:21;10.70;;;4.35;;
16101;SDS011;56411;52.964;10.540;2023-08-01T09:48:48;9.60;;;4.22;;
16101;SDS011;56411;52.964;10.540;2023-08-01T09:51:17;8.82;;;4.03;;
16101;SDS011;56411;52.964;10.540;2023-08-01T09:53:49;11.70;;;4.35;;
16101;SDS011;56411;52.964;10.540;2023-08-01T09:56:19;8.50;;;4.28;;
16101;SDS011;56411;52.964;10.540;2023-08-01T09:58:48;11.35;;;4.70;;
16101;SDS011;56411;52.964;10.540;2023-08-01T10:01:16;9.85;;;4.50;;
16101;SDS011;56411;52.964;10.540;2023-08-01T10:03:45;8.85;;;4.20;;
16101;SDS011;56411;52.964;10.540;2023-08-01T10:06:14;9.90;;;4.53;;
16101;SDS011;56411;52.964;10.540;2023-08-01T10:08:46;9.82;;;3.95;;
16101;SDS011;56411;52.964;10.540;2023-08-01T10:11:15;8.32;;;3.95;;
16101;SDS011;56411;52.964;10.540;2023-08-01T10:13:45;9.57;;;4.50;;
16101;SDS011;56411;52.964;10.540;2023-08-01T10:16:13;12.73;;;5.13;;
16101;SDS011;56411;52.964;10.540;2023-08-01T10:18:42;10.85;;;5.07;;
16101;SDS011;56411;52.964;10.540;2023-08-01T10:21:11;10.50;;;4.82;;
16101;SDS011;56411;52.964;10.540;2023-08-01T10:23:41;11.52;;;5.03;;
16101;SDS011;56411;52.964;10.540;2023-08-01T10:26:11;10.70;;;4.28;;
16101;SDS011;56411;52.964;10.540;2023-08-01T10:28:40;11.05;;;4.50;;
16101;SDS011;56411;52.964;10.540;2023-08-01T10:31:08;10.07;;;4.68;;
16101;SDS011;56411;52.964;10.540;2023-08-01T10:33:37;8.15;;;3.97;;
16101;SDS011;56411;52.964;10.540;2023-08-01T10:36:14;8.93;;;4.00;;
16101;SDS011;56411;52.964;10.540;2023-08-01T10:38:51;8.20;;;4.05;;
16101;SDS011;56411;52.964;10.540;2023-08-01T10:41:19;8.40;;;3.72;;
16101;SDS011;56411;52.964;10.540;2023-08-01T10:43:47;9.18;;;3.75;;
16101;SDS011;56411;52.964;10.540;2023-08-01T10:46:15;8.48;;;3.75;;
16101;SDS011;56411;52.964;10.540;2023-08-01T10:48:51;7.63;;;3.50;;
16101;SDS011;56411;52.964;10.540;2023-08-01T10:51:18;7.97;;;3.30;;
16101;SDS011;56411;52.964;10.540;2023-08-01T10:53:45;7.32;;;3.40;;
16101;SDS011;56411;52.964;10.540;2023-08-01T10:56:18;8.23;;;3.65;;
16101;SDS011;56411;52.964;10.540;2023-08-01T10:58:46;9.60;;;3.38;;
16101;SDS011;56411;52.964;10.540;2023-08-01T11:01:14;6.60;;;3.05;;
16101;SDS011;56411;52.964;10.540;2023-08-01T11:03:41;7.28;;;3.10;;
16101;SDS011;56411;52.964;10.540;2023-08-01T11:06:09;5.47;;;2.85;;
16101;SDS011;56411;52.964;10.540;2023-08-01T11:08:36;7.25;;;3.00;;
16101;SDS011;56411;52.964;10.540;2023-08-01T11:11:05;5.97;;;2.80;;
16101;SDS011;56411;52.964;10.540;2023-08-01T11:13:35;6.88;;;3.03;;
16101;SDS011;56411;52.964;10.540;2023-08-01T11:16:02;5.93;;;2.92;;
16101;SDS011;56411;52.964;10.540;2023-08-01T11:18:40;7.93;;;3.00;;
16101;SDS011;56411;52.964;10.540;2023-08-01T11:21:07;5.75;;;2.72;;
16101;SDS011;56411;52.964;10.540;2023-08-01T11:23:34;5.63;;;2.50;;
16101;SDS011;56411;52.964;10.540;2023-08-01T11:26:06;6.18;;;2.88;;
16101;SDS011;56411;52.964;10.540;2023-08-01T11:28:36;5.85;;;2.70;;
16101;SDS011;56411;52.964;10.540;2023-08-01T11:31:10;7.82;;;3.10;;
16101;SDS011;56411;52.964;10.540;2023-08-01T11:33:38;5.88;;;2.97;;
16101;SDS011;56411;52.964;10.540;2023-08-01T11:36:05;7.82;;;3.15;;
16101;SDS011;56411;52.964;10.540;2023-08-01T11:38:33;7.13;;;3.08;;
16101;SDS011;56411;52.964;10.540;2023-08-01T11:41:01;6.40;;;3.08;;
16101;SDS011;56411;52.964;10.540;2023-08-01T11:43:39;8.38;;;3.13;;
16101;SDS011;56411;52.964;10.540;2023-08-01T11:46:07;6.10;;;3.00;;
16101;SDS011;56411;52.964;10.540;2023-08-01T11:48:34;7.25;;;3.00;;
16101;SDS011;56411;52.964;10.540;2023-08-01T11:51:02;6.28;;;2.78;;
16101;SDS011;56411;52.964;10.540;2023-08-01T11:53:30;7.68;;;2.95;;
16101;SDS011;56411;52.964;10.540;2023-08-01T11:56:03;7.32;;;3.08;;
16101;SDS011;56411;52.964;10.540;2023-08-01T11:58:31;6.45;;;3.47;;
16101;SDS011;56411;52.964;10.540;2023-08-01T12:01:04;6.40;;;3.10;;
16101;SDS011;56411;52.964;10.540;2023-08-01T12:03:41;7.20;;;2.67;;
16101;SDS011;56411;52.964;10.540;2023-08-01T12:06:09;6.30;;;2.38;;
16101;SDS011;56411;52.964;10.540;2023-08-01T12:08:38;5.88;;;2.50;;
16101;SDS011;56411;52.964;10.540;2023-08-01T12:11:06;6.03;;;2.63;;
16101;SDS011;56411;52.964;10.540;2023-08-01T12:13:44;5.80;;;2.55;;
16101;SDS011;56411;52.964;10.540;2023-08-01T12:16:13;6.55;;;2.60;;
16101;SDS011;56411;52.964;10.540;2023-08-01T12:18:45;4.55;;;2.42;;
16101;SDS011;56411;52.964;10.540;2023-08-01T12:21:13;4.50;;;2.28;;
16101;SDS011;56411;52.964;10.540;2023-08-01T12:23:40;6.95;;;2.50;;
16101;SDS011;56411;52.964;10.540;2023-08-01T12:26:07;5.20;;;2.47;;
16101;SDS011;56411;52.964;10.540;2023-08-01T12:28:34;5.65;;;2.50;;
16101;SDS011;56411;52.964;10.540;2023-08-01T12:31:02;5.40;;;2.55;;
16101;SDS011;56411;52.964;10.540;2023-08-01T12:33:31;5.82;;;2.42;;
16101;SDS011;56411;52.964;10.540;2023-08-01T12:35:59;5.40;;;2.47;;
16101;SDS011;56411;52.964;10.540;2023-08-01T12:38:26;7.63;;;2.90;;
16101;SDS011;56411;52.964;10.540;2023-08-01T12:40:53;5.90;;;2.50;;
16101;SDS011;56411;52.964;10.540;2023-08-01T12:43:21;10.10;;;3.33;;
16101;SDS011;56411;52.964;10.540;2023-08-01T12:45:48;8.10;;;3.28;;
16101;SDS011;56411;52.964;10.540;2023-08-01T12:48:15;6.90;;;3.38;;
16101;SDS011;56411;52.964;10.540;2023-08-01T12:50:46;6.47;;;2.97;;
16101;SDS011;56411;52.964;10.540;2023-08-01T12:53:14;8.05;;;2.80;;
16101;SDS011;56411;52.964;10.540;2023-08-01T12:55:42;4.80;;;2.47;;
16101;SDS011;56411;52.964;10.540;2023-08-01T12:58:10;4.45;;;2.65;;
16101;SDS011;56411;52.964;10.540;2023-08-01T13:00:38;5.78;;;2.08;;
16101;SDS011;56411;52.964;10.540;2023-08-01T13:03:06;4.20;;;2.20;;
16101;SDS011;56411;52.964;10.540;2023-08-01T13:05:34;5.28;;;2.00;;
16101;SDS011;56411;52.964;10.540;2023-08-01T13:08:03;5.05;;;2.17;;
16101;SDS011;56411;52.964;10.540;2023-08-01T13:10:31;4.63;;;2.00;;
16101;SDS011;56411;52.964;10.540;2023-08-01T13:12:58;4.28;;;2.00;;
16101;SDS011;56411;52.964;10.540;2023-08-01T13:15:26;3.22;;;1.90;;
16101;SDS011;56411;52.964;10.540;2023-08-01T13:17:53;4.93;;;2.00;;
16101;SDS011;56411;52.964;10.540;2023-08-01T13:20:21;7.47;;;2.13;;
16101;SDS011;56411;52.964;10.540;2023-08-01T13:22:48;3.70;;;1.90;;
16101;SDS011;56411;52.964;10.540;2023-08-01T13:25:18;4.25;;;2.10;;
16101;SDS011;56411;52.964;10.540;2023-08-01T13:27:45;5.60;;;2.25;;
16101;SDS011;56411;52.964;10.540;2023-08-01T13:30:12;5.20;;;2.20;;
16101;SDS011;56411;52.964;10.540;2023-08-01T13:32:42;5.97;;;2.33;;
16101;SDS011;56411;52.964;10.540;2023-08-01T13:35:10;5.25;;;2.35;;
16101;SDS011;56411;52.964;10.540;2023-08-01T13:37:37;6.97;;;2.35;;
16101;SDS011;56411;52.964;10.540;2023-08-01T13:40:04;4.28;;;2.40;;
16101;SDS011;56411;52.964;10.540;2023-08-01T13:42:34;8.77;;;2.80;;
16101;SDS011;56411;52.964;10.540;2023-08-01T13:45:01;5.60;;;2.83;;
16101;SDS011;56411;52.964;10.540;2023-08-01T13:47:29;5.00;;;2.50;;
16101;SDS011;56411;52.964;10.540;2023-08-01T13:49:57;4.72;;;2.55;;
16101;SDS011;56411;52.964;10.540;2023-08-01T13:52:24;5.30;;;2.40;;
16101;SDS011;56411;52.964;10.540;2023-08-01T13:54:51;3.47;;;2.20;;
16101;SDS011;56411;52.964;10.540;2023-08-01T13:57:18;4.32;;;2.13;;
16101;SDS011;56411;52.964;10.540;2023-08-01T13:59:48;3.92;;;1.98;;
16101;SDS011;56411;52.964;10.540;2023-08-01T14:02:15;4.93;;;1.80;;
16101;SDS011;56411;52.964;10.540;2023-08-01T14:04:42;3.08;;;1.77;;
16101;SDS011;56411;52.964;10.540;2023-08-01T14:07:10;4.63;;;2.08;;
16101;SDS011;56411;52.964;10.540;2023-08-01T14:09:37;6.53;;;2.38;;
16101;SDS011;56411;52.964;10.540;2023-08-01T14:12:05;6.13;;;2.60;;
16101;SDS011;56411;52.964;10.540;2023-08-01T14:14:33;5.35;;;2.30;;
16101;SDS011;56411;52.964;10.540;2023-08-01T14:17:02;6.03;;;2.20;;
16101;SDS011;56411;52.964;10.540;2023-08-01T14:19:30;4.75;;;2.22;;
16101;SDS011;56411;52.964;10.540;2023-08-01T14:21:57;4.18;;;2.20;;
16101;SDS011;56411;52.964;10.540;2023-08-01T14:24:24;4.60;;;2.00;;
16101;SDS011;56411;52.964;10.540;2023-08-01T14:26:51;4.30;;;2.20;;
16101;SDS011;56411;52.964;10.540;2023-08-01T14:29:18;6.72;;;2.42;;
16101;SDS011;56411;52.964;10.540;2023-08-01T14:31:47;4.10;;;2.20;;
16101;SDS011;56411;52.964;10.540;2023-08-01T14:34:17;4.72;;;2.35;;
16101;SDS011;56411;52.964;10.540;2023-08-01T14:36:44;6.93;;;2.50;;
16101;SDS011;56411;52.964;10.540;2023-08-01T14:39:11;6.90;;;2.90;;
16101;SDS011;56411;52.964;10.540;2023-08-01T14:41:38;7.18;;;2.60;;
16101;SDS011;56411;52.964;10.540;2023-08-01T14:44:05;7.70;;;3.00;;
16101;SDS011;56411;52.964;10.540;2023-08-01T14:46:33;9.95;;;2.97;;
16101;SDS011;56411;52.964;10.540;2023-08-01T14:49:02;10.60;;;3.20;;
16101;SDS011;56411;52.964;10.540;2023-08-01T14:51:33;9.70;;;3.50;;
16101;SDS011;56411;52.964;10.540;2023-08-01T14:54:00;10.43;;;3.30;;
16101;SDS011;56411;52.964;10.540;2023-08-01T14:56:28;14.73;;;3.88;;
16101;SDS011;56411;52.964;10.540;2023-08-01T14:58:55;8.82;;;3.47;;
16101;SDS011;56411;52.964;10.540;2023-08-01T15:01:26;6.95;;;3.00;;
16101;SDS011;56411;52.964;10.540;2023-08-01T15:03:53;7.75;;;3.38;;
16101;SDS011;56411;52.964;10.540;2023-08-01T15:06:20;5.50;;;2.80;;
16101;SDS011;56411;52.964;10.540;2023-08-01T15:08:51;5.43;;;2.80;;
16101;SDS011;56411;52.964;10.540;2023-08-01T15:11:18;6.68;;;3.00;;
16101;SDS011;56411;52.964;10.540;2023-08-01T15:13:48;7.30;;;3.35;;
16101;SDS011;56411;52.964;10.540;2023-08-01T15:16:15;9.60;;;3.70;;
16101;SDS011;56411;52.964;10.540;2023-08-01T15:18:44;10.13;;;4.05;;
16101;SDS011;56411;52.964;10.540;2023-08-01T15:21:14;9.52;;;4.10;;